Time,TemperatureF,DewpointF,PressureIn,WindDirection,WindDirectionDegrees,WindSpeedMPH,WindSpeedGustMPH,Humidity,HourlyPrecipIn,Conditions,Clouds,dailyrainin,SolarRadiationWatts/m^2,SoftwareType,DateUTC
2013-04-23 00:00:00,40.2,31.8,30.45,ENE,74,7.4,14.1,71,0.00,,,-99.99,1.0,HOBO +U30 +Weather +,2013-04-23 04:00:00,
2013-04-23 00:15:00,40.4,32.0,30.44,ENE,72,7.4,13.6,71,0.00,,,-99.99,1.0,HOBO +U30 +Weather +,2013-04-23 04:15:00,
2013-04-23 00:30:00,40.3,31.8,30.44,ENE,77,7.4,15.4,71,0.00,,,-99.99,1.0,HOBO +U30 +Weather +,2013-04-23 04:30:00,
2013-04-23 00:45:00,40.4,32.1,30.43,ENE,77,6.7,13.6,71,0.00,,,-99.99,1.0,HOBO +U30 +Weather +,2013-04-23 04:45:00,
2013-04-23 01:00:00,40.6,32.2,30.42,ENE,67,6.7,12.5,71,0.00,,,-99.99,1.0,HOBO +U30 +Weather +,2013-04-23 05:00:00,
2013-04-23 01:15:00,40.5,32.2,30.42,ENE,72,7.8,16.6,71,0.00,,,-99.99,1.0,HOBO +U30 +Weather +,2013-04-23 05:15:00,
2013-04-23 01:30:00,40.7,32.5,30.41,ENE,74,6.7,13.6,72,0.00,,,-99.99,1.0,HOBO +U30 +Weather +,2013-04-23 05:30:00,
2013-04-23 01:45:00,40.6,32.4,30.41,ENE,77,7.2,13.6,72,0.00,,,-99.99,1.0,HOBO +U30 +Weather +,2013-04-23 05:45:00,
2013-04-23 02:00:00,40.6,32.7,30.40,ENE,73,7.4,13.6,73,0.00,,,-99.99,1.0,HOBO +U30 +Weather +,2013-04-23 06:00:00,
2013-04-23 02:15:00,40.6,32.5,30.39,ENE,73,6.7,12.5,72,0.00,,,-99.99,1.0,HOBO +U30 +Weather +,2013-04-23 06:15:00,
2013-04-23 02:30:00,40.6,32.4,30.38,ENE,69,7.2,13.2,72,0.00,,,-99.99,1.0,HOBO +U30 +Weather +,2013-04-23 06:30:00,
2013-04-23 02:45:00,40.7,32.7,30.37,ENE,73,7.2,12.1,72,0.00,,,-99.99,1.0,HOBO +U30 +Weather +,2013-04-23 06:45:00,
2013-04-23 03:00:00,40.8,33.5,30.37,ENE,67,6.7,13.0,74,0.00,,,-99.99,1.0,HOBO +U30 +Weather +,2013-04-23 07:00:00,
2013-04-23 03:15:00,40.8,34.0,30.37,ENE,65,7.2,13.0,76,0.00,,,-99.99,1.0,HOBO +U30 +Weather +,2013-04-23 07:15:00,
2013-04-23 03:30:00,40.8,34.4,30.35,ENE,66,7.4,13.6,77,0.00,,,-99.99,1.0,HOBO +U30 +Weather +,2013-04-23 07:30:00,
2013-04-23 03:45:00,40.9,34.8,30.35,ENE,69,7.4,15.4,78,0.00,,,-99.99,1.0,HOBO +U30 +Weather +,2013-04-23 07:45:00,
2013-04-23 04:00:00,40.9,34.9,30.35,ENE,65,7.4,15.0,79,0.00,,,-99.99,1.0,HOBO +U30 +Weather +,2013-04-23 08:00:00,
2013-04-23 04:15:00,40.9,35.2,30.35,ENE,72,7.4,15.0,80,0.00,,,-99.99,1.0,HOBO +U30 +Weather +,2013-04-23 08:15:00,
2013-04-23 04:30:00,40.9,35.4,30.35,ENE,66,7.4,13.6,80,0.00,,,-99.99,1.0,HOBO +U30 +Weather +,2013-04-23 08:30:00,
2013-04-23 04:45:00,40.9,35.6,30.34,ENE,69,8.7,16.1,81,0.00,,,-99.99,1.0,HOBO +U30 +Weather +,2013-04-23 08:45:00,
2013-04-23 05:00:00,40.8,35.7,30.34,ENE,63,8.3,15.0,81,0.00,,,-99.99,1.0,HOBO +U30 +Weather +,2013-04-23 09:00:00,
2013-04-23 05:15:00,40.8,35.8,30.34,ENE,63,8.3,17.0,82,0.00,,,-99.99,1.0,HOBO +U30 +Weather +,2013-04-23 09:15:00,
2013-04-23 05:30:00,40.3,36.1,30.34,ENE,73,7.4,15.4,84,0.00,,,-99.99,1.0,HOBO +U30 +Weather +,2013-04-23 09:30:00,
2013-04-23 05:45:00,40.0,36.5,30.34,ENE,62,7.2,16.6,87,0.00,,,-99.99,1.0,HOBO +U30 +Weather +,2013-04-23 09:45:00,
2013-04-23 06:00:00,39.8,36.9,30.34,ENE,67,7.4,14.1,89,0.00,,,-99.99,1.0,HOBO +U30 +Weather +,2013-04-23 10:00:00,
2013-04-23 06:15:00,39.9,37.2,30.34,ENE,72,8.7,16.1,90,0.00,,,-99.99,3.0,HOBO +U30 +Weather +,2013-04-23 10:15:00,
2013-04-23 06:30:00,39.8,37.3,30.34,ENE,60,7.2,14.5,90,0.00,,,-99.99,8.0,HOBO +U30 +Weather +,2013-04-23 10:30:00,
2013-04-23 06:45:00,39.7,37.5,30.33,ENE,70,8.3,16.6,92,0.00,,,-99.99,11.0,HOBO +U30 +Weather +,2013-04-23 10:45:00,
2013-04-23 07:00:00,39.7,38.0,30.33,ENE,66,7.2,16.6,93,0.00,,,-99.99,12.0,HOBO +U30 +Weather +,2013-04-23 11:00:00,
2013-04-23 07:15:00,39.8,38.2,30.33,ENE,59,6.7,13.0,94,0.00,,,-99.99,16.0,HOBO +U30 +Weather +,2013-04-23 11:15:00,
2013-04-23 07:30:00,39.9,38.5,30.33,ENE,66,5.8,11.6,94,0.00,,,-99.99,19.0,HOBO +U30 +Weather +,2013-04-23 11:30:00,
2013-04-23 07:45:00,40.0,38.6,30.33,ENE,67,7.8,15.4,94,0.30,,,-99.99,24.0,HOBO +U30 +Weather +,2013-04-23 11:45:00,
2013-04-23 08:00:00,40.1,38.7,30.33,ENE,69,7.2,15.0,94,0.00,,,-99.99,27.0,HOBO +U30 +Weather +,2013-04-23 12:00:00,
2013-04-23 08:15:00,40.2,38.8,30.33,ENE,62,7.4,17.0,94,0.00,,,-99.99,34.0,HOBO +U30 +Weather +,2013-04-23 12:15:00,
2013-04-23 08:30:00,40.4,39.0,30.32,ENE,63,8.3,15.9,94,0.00,,,-99.99,38.0,HOBO +U30 +Weather +,2013-04-23 12:30:00,
2013-04-23 08:45:00,40.6,39.2,30.32,ENE,59,7.4,15.0,94,0.00,,,-99.99,43.0,HOBO +U30 +Weather +,2013-04-23 12:45:00,
2013-04-23 09:00:00,40.5,38.9,30.32,NE,53,7.2,14.5,94,0.00,,,-99.99,43.0,HOBO +U30 +Weather +,2013-04-23 13:00:00,
2013-04-23 09:15:00,40.7,39.2,30.31,ENE,58,7.4,17.0,94,0.00,,,-99.99,38.0,HOBO +U30 +Weather +,2013-04-23 13:15:00,
2013-04-23 09:30:00,40.6,39.2,30.31,ENE,63,7.4,15.9,94,0.00,,,-99.99,47.0,HOBO +U30 +Weather +,2013-04-23 13:30:00,
2013-04-23 09:45:00,40.7,39.3,30.31,ENE,66,7.4,14.1,94,0.00,,,-99.99,41.0,HOBO +U30 +Weather +,2013-04-23 13:45:00,
2013-04-23 10:00:00,40.9,39.6,30.30,ENE,62,7.4,14.1,95,0.30,,,-99.99,46.0,HOBO +U30 +Weather +,2013-04-23 14:00:00,
2013-04-23 10:15:00,40.9,39.7,30.30,NE,56,8.3,14.1,95,0.00,,,-99.99,44.0,HOBO +U30 +Weather +,2013-04-23 14:15:00,
2013-04-23 10:30:00,41.0,39.8,30.29,ENE,60,8.3,16.1,95,0.00,,,-99.99,59.0,HOBO +U30 +Weather +,2013-04-23 14:30:00,
2013-04-23 10:45:00,41.1,39.8,30.29,ENE,63,9.2,16.1,95,0.00,,,-99.99,66.0,HOBO +U30 +Weather +,2013-04-23 14:45:00,
2013-04-23 11:00:00,41.2,39.9,30.29,ENE,67,9.6,17.4,95,0.00,,,-99.99,52.0,HOBO +U30 +Weather +,2013-04-23 15:00:00,
2013-04-23 11:15:00,41.5,40.2,30.28,NE,56,6.7,15.4,95,0.00,,,-99.99,54.0,HOBO +U30 +Weather +,2013-04-23 15:15:00,
2013-04-23 11:30:00,41.6,40.4,30.28,NE,53,7.2,14.5,95,0.00,,,-99.99,56.0,HOBO +U30 +Weather +,2013-04-23 15:30:00,
2013-04-23 11:45:00,41.6,40.2,30.28,ENE,63,10.1,17.4,94,0.00,,,-99.99,59.0,HOBO +U30 +Weather +,2013-04-23 15:45:00,
2013-04-23 12:00:00,41.7,40.1,30.27,NE,56,10.3,18.3,93,0.00,,,-99.99,77.0,HOBO +U30 +Weather +,2013-04-23 16:00:00,
2013-04-23 12:15:00,41.9,40.2,30.26,ENE,58,9.6,17.9,93,0.00,,,-99.99,73.0,HOBO +U30 +Weather +,2013-04-23 16:15:00,
2013-04-23 12:30:00,41.9,40.3,30.26,ENE,58,7.8,17.0,94,0.00,,,-99.99,81.0,HOBO +U30 +Weather +,2013-04-23 16:30:00,
2013-04-23 12:45:00,41.9,40.3,30.25,NE,51,9.6,18.6,93,0.00,,,-99.99,68.0,HOBO +U30 +Weather +,2013-04-23 16:45:00,
2013-04-23 13:00:00,42.1,40.5,30.24,NE,49,6.7,13.2,93,0.00,,,-99.99,71.0,HOBO +U30 +Weather +,2013-04-23 17:00:00,
2013-04-23 13:15:00,42.0,40.3,30.23,ENE,58,8.3,17.9,93,0.00,,,-99.99,63.0,HOBO +U30 +Weather +,2013-04-23 17:15:00,
2013-04-23 13:30:00,42.0,40.2,30.23,NE,55,10.3,18.6,93,0.00,,,-99.99,39.0,HOBO +U30 +Weather +,2013-04-23 17:30:00,
2013-04-23 13:45:00,42.1,40.2,30.22,NE,51,9.6,16.1,93,0.00,,,-99.99,41.0,HOBO +U30 +Weather +,2013-04-23 17:45:00,
2013-04-23 14:00:00,42.1,40.2,30.21,NE,46,9.6,18.6,92,0.00,,,-99.99,38.0,HOBO +U30 +Weather +,2013-04-23 18:00:00,
2013-04-23 14:15:00,42.0,40.2,30.21,NE,56,9.2,21.3,93,0.00,,,-99.99,33.0,HOBO +U30 +Weather +,2013-04-23 18:15:00,
2013-04-23 14:30:00,41.9,40.1,30.19,NE,53,8.7,16.1,93,0.00,,,-99.99,42.0,HOBO +U30 +Weather +,2013-04-23 18:30:00,
2013-04-23 14:45:00,42.1,40.4,30.19,NE,52,7.8,15.4,93,0.00,,,-99.99,49.0,HOBO +U30 +Weather +,2013-04-23 18:45:00,
2013-04-23 15:00:00,42.0,40.5,30.18,NE,41,7.2,13.2,94,0.00,,,-99.99,51.0,HOBO +U30 +Weather +,2013-04-23 19:00:00,
2013-04-23 15:15:00,42.1,40.6,30.17,NE,55,7.8,15.0,94,0.00,,,-99.99,44.0,HOBO +U30 +Weather +,2013-04-23 19:15:00,
2013-04-23 15:30:00,42.1,40.6,30.16,NE,48,6.7,16.1,94,0.00,,,-99.99,34.0,HOBO +U30 +Weather +,2013-04-23 19:30:00,
2013-04-23 15:45:00,42.1,40.6,30.16,NE,49,7.2,14.1,94,0.00,,,-99.99,37.0,HOBO +U30 +Weather +,2013-04-23 19:45:00,
2013-04-23 16:00:00,42.0,40.5,30.15,NE,46,7.8,15.4,94,0.00,,,-99.99,47.0,HOBO +U30 +Weather +,2013-04-23 20:00:00,
2013-04-23 16:15:00,41.9,40.4,30.15,NE,41,9.2,15.0,94,0.50,,,-99.99,38.0,HOBO +U30 +Weather +,2013-04-23 20:15:00,
2013-04-23 16:30:00,41.7,40.5,30.14,NE,38,8.3,15.9,95,0.30,,,-99.99,31.0,HOBO +U30 +Weather +,2013-04-23 20:30:00,
2013-04-23 16:45:00,41.8,40.7,30.14,NNE,29,7.2,15.9,95,0.30,,,-99.99,27.0,HOBO +U30 +Weather +,2013-04-23 20:45:00,
2013-04-23 17:00:00,41.6,40.5,30.14,NNE,32,7.4,13.6,95,0.30,,,-99.99,28.0,HOBO +U30 +Weather +,2013-04-23 21:00:00,
2013-04-23 17:15:00,41.8,40.6,30.14,NE,42,9.2,17.0,95,0.30,,,-99.99,27.0,HOBO +U30 +Weather +,2013-04-23 21:15:00,
2013-04-23 17:30:00,41.8,40.5,30.14,NE,39,7.4,13.2,95,0.00,,,-99.99,28.0,HOBO +U30 +Weather +,2013-04-23 21:30:00,
2013-04-23 17:45:00,41.6,40.4,30.13,NE,34,7.4,15.0,95,0.00,,,-99.99,24.0,HOBO +U30 +Weather +,2013-04-23 21:45:00,
2013-04-23 18:00:00,41.7,40.6,30.12,NE,39,7.8,13.6,95,0.30,,,-99.99,27.0,HOBO +U30 +Weather +,2013-04-23 22:00:00,
2013-04-23 18:15:00,41.7,40.7,30.11,NE,39,8.3,21.5,96,0.30,,,-99.99,29.0,HOBO +U30 +Weather +,2013-04-23 22:15:00,
2013-04-23 18:30:00,41.7,40.7,30.10,NE,39,10.1,19.5,96,0.00,,,-99.99,22.0,HOBO +U30 +Weather +,2013-04-23 22:30:00,
2013-04-23 18:45:00,41.7,40.7,30.10,NNE,32,8.3,17.9,96,0.30,,,-99.99,13.0,HOBO +U30 +Weather +,2013-04-23 22:45:00,
2013-04-23 19:00:00,41.6,40.5,30.09,NE,46,10.7,20.4,95,0.00,,,-99.99,7.0,HOBO +U30 +Weather +,2013-04-23 23:00:00,
2013-04-23 19:15:00,41.7,40.6,30.08,NE,46,10.1,17.9,95,0.00,,,-99.99,2.0,HOBO +U30 +Weather +,2013-04-23 23:15:00,
2013-04-23 19:30:00,41.8,40.7,30.09,NE,34,10.1,21.5,95,0.00,,,-99.99,1.0,HOBO +U30 +Weather +,2013-04-23 23:30:00,
2013-04-23 19:45:00,41.6,40.5,30.07,NE,34,7.2,14.5,95,0.30,,,-99.99,1.0,HOBO +U30 +Weather +,2013-04-23 23:45:00,
2013-04-23 20:00:00,41.5,40.6,30.07,NNE,24,6.7,12.5,96,0.00,,,-99.99,1.0,HOBO +U30 +Weather +,2013-04-24 00:00:00,
2013-04-23 20:15:00,41.5,40.6,30.06,NNE,31,9.2,22.4,96,0.30,,,-99.99,1.0,HOBO +U30 +Weather +,2013-04-24 00:15:00,
2013-04-23 20:30:00,41.5,40.6,30.06,NNE,28,7.8,16.6,96,0.30,,,-99.99,1.0,HOBO +U30 +Weather +,2013-04-24 00:30:00,
2013-04-23 20:45:00,41.4,40.5,30.06,NNE,25,8.3,16.6,96,0.30,,,-99.99,1.0,HOBO +U30 +Weather +,2013-04-24 00:45:00,
2013-04-23 21:00:00,41.4,40.5,30.06,NE,34,7.8,13.6,96,0.00,,,-99.99,1.0,HOBO +U30 +Weather +,2013-04-24 01:00:00,
2013-04-23 21:15:00,41.4,40.5,30.04,NNE,25,7.2,13.6,96,0.30,,,-99.99,1.0,HOBO +U30 +Weather +,2013-04-24 01:15:00,
2013-04-23 21:30:00,41.6,40.6,30.03,NE,42,8.3,18.6,96,0.00,,,-99.99,1.0,HOBO +U30 +Weather +,2013-04-24 01:30:00,
2013-04-23 21:45:00,41.7,40.6,30.02,NE,38,8.3,15.9,95,0.00,,,-99.99,1.0,HOBO +U30 +Weather +,2013-04-24 01:45:00,
2013-04-23 22:00:00,42.0,40.8,30.02,NE,37,8.7,21.5,95,0.00,,,-99.99,1.0,HOBO +U30 +Weather +,2013-04-24 02:00:00,
2013-04-23 22:15:00,41.8,40.5,30.03,NNE,21,6.3,12.1,95,0.00,,,-99.99,1.0,HOBO +U30 +Weather +,2013-04-24 02:15:00,
2013-04-23 22:30:00,41.6,40.4,30.02,NNE,14,7.2,15.4,95,0.00,,,-99.99,1.0,HOBO +U30 +Weather +,2013-04-24 02:30:00,
2013-04-23 22:45:00,41.6,40.5,30.01,NNE,18,7.4,16.6,96,0.00,,,-99.99,1.0,HOBO +U30 +Weather +,2013-04-24 02:45:00,
2013-04-23 23:00:00,41.6,40.7,30.01,NNE,22,8.7,15.4,96,0.00,,,-99.99,1.0,HOBO +U30 +Weather +,2013-04-24 03:00:00,
2013-04-23 23:15:00,41.6,40.9,29.99,NNE,29,8.3,16.1,97,0.00,,,-99.99,1.0,HOBO +U30 +Weather +,2013-04-24 03:15:00,
2013-04-23 23:30:00,41.7,41.1,29.98,NNE,32,8.3,17.0,97,0.00,,,-99.99,1.0,HOBO +U30 +Weather +,2013-04-24 03:30:00,
2013-04-23 23:45:00,41.8,41.2,29.97,NNE,29,8.3,16.6,97,0.00,,,-99.99,1.0,HOBO +U30 +Weather +,2013-04-24 03:45:00,